Time;durP1;ratioP1;P1;durP2;ratioP2;P2;SDS_P1;SDS_P2;PMS_P1;PMS_P2;Temp;Humidity;BMP_temperature;BMP_pressure;BME280_temperature;BME280_humidity;BME280_pressure;Samples;Min_cycle;Max_cycle;Signal;HPM_P1;HPM_P2
2023/11/01 00:01:00;;;;;;;3.30;1.30;;;;;;;11.25;77.00;99067.88;130879;1256;107163;-78
2023/11/01 00:04:10;;;;;;;3.70;1.40;;;;;;;11.27;77.03;99068.04;130796;1256;106732;-78
2023/11/01 00:07:16;;;;;;;2.40;1.20;;;;;;;11.34;77.26;99074.45;130860;1258;107744;-78
2023/11/01 00:10:22;;;;;;;1.80;1.30;;;;;;;11.44;76.90;99082.64;130747;1256;106362;-78
2023/11/01 00:13:27;;;;;;;1.70;1.30;;;;;;;11.49;76.82;99083.73;130917;1254;107644;-78
2023/11/01 00:16:33;;;;;;;1.50;1.20;;;;;;;11.53;76.81;99086.69;130899;1256;107516;-79
2023/11/01 00:19:39;;;;;;;1.90;1.20;;;;;;;11.54;76.96;99082.23;130780;1252;107627;-79
2023/11/01 00:22:44;;;;;;;1.80;1.20;;;;;;;11.56;76.72;99088.70;130737;1253;108016;-78
2023/11/01 00:25:50;;;;;;;2.50;1.10;;;;;;;11.55;76.69;99088.70;130756;1255;107189;-78
2023/11/01 00:28:55;;;;;;;3.30;1.00;;;;;;;11.54;76.73;99091.69;130782;1256;106466;-78
2023/11/01 00:32:01;;;;;;;3.30;1.10;;;;;;;11.50;76.70;99092.57;130780;1253;107743;-78
2023/11/01 00:35:08;;;;;;;1.20;0.90;;;;;;;11.46;76.54;99098.06;130763;1257;107772;-78
2023/11/01 00:38:14;;;;;;;2.60;1.10;;;;;;;11.45;76.65;99098.55;130865;1256;107187;-78
2023/11/01 00:41:19;;;;;;;2.00;1.10;;;;;;;11.48;76.57;99099.49;130789;1257;107604;-78
2023/11/01 00:44:25;;;;;;;4.30;1.30;;;;;;;11.50;76.71;99099.44;130810;1256;107204;-78
2023/11/01 00:47:31;;;;;;;2.40;1.10;;;;;;;11.53;76.48;99098.38;130731;1255;108684;-78
2023/11/01 00:50:36;;;;;;;2.20;1.20;;;;;;;11.56;76.46;99107.20;130820;1254;107475;-79
2023/11/01 00:53:42;;;;;;;2.10;1.30;;;;;;;11.54;76.94;99110.42;130697;1259;107781;-79
2023/11/01 00:56:47;;;;;;;1.70;1.10;;;;;;;11.50;77.43;99110.73;130711;1258;108624;-78
2023/11/01 00:59:54;;;;;;;2.60;1.60;;;;;;;11.39;77.68;99116.69;130623;1254;105735;-79
2023/11/01 01:02:59;;;;;;;1.90;1.30;;;;;;;11.29;78.00;99118.54;130744;1254;107614;-79
2023/11/01 01:06:06;;;;;;;2.30;1.50;;;;;;;11.25;78.58;99119.39;130737;1260;107554;-78
2023/11/01 01:09:12;;;;;;;2.60;1.10;;;;;;;11.22;78.78;99116.56;130806;1259;108378;-77
2023/11/01 01:12:18;;;;;;;2.30;1.50;;;;;;;11.27;78.78;99114.07;130738;1254;106634;-79
2023/11/01 01:15:23;;;;;;;2.40;1.40;;;;;;;11.29;78.75;99114.67;130747;1258;106264;-79
2023/11/01 01:18:29;;;;;;;3.00;1.60;;;;;;;11.28;78.60;99114.21;130748;1259;106835;-79
2023/11/01 01:21:36;;;;;;;3.40;1.80;;;;;;;11.28;78.88;99114.95;130718;1258;107794;-80
2023/11/01 01:24:41;;;;;;;2.00;1.50;;;;;;;11.30;78.83;99113.33;130740;1257;108084;-79
2023/11/01 01:27:47;;;;;;;4.50;1.40;;;;;;;11.29;78.88;99113.94;130748;1253;107721;-79
2023/11/01 01:30:52;;;;;;;2.30;1.30;;;;;;;11.31;79.01;99115.48;130692;1259;106600;-79
2023/11/01 01:33:58;;;;;;;1.50;1.40;;;;;;;11.36;79.06;99117.92;130813;1254;107413;-79
2023/11/01 01:37:04;;;;;;;3.60;2.10;;;;;;;11.40;79.01;99117.08;130787;1256;106147;-79
2023/11/01 01:40:12;;;;;;;2.30;1.80;;;;;;;11.44;78.92;99116.96;130692;1254;106509;-79
2023/11/01 01:43:22;;;;;;;2.30;1.80;;;;;;;11.46;79.20;99117.02;130813;1259;107485;-79
2023/11/01 01:46:30;;;;;;;3.40;2.10;;;;;;;11.48;79.28;99112.58;130779;1259;107694;-79
2023/11/01 01:49:36;;;;;;;3.10;2.00;;;;;;;11.49;79.36;99109.05;130770;1256;107709;-79
2023/11/01 01:52:42;;;;;;;5.60;2.20;;;;;;;11.49;79.41;99104.41;130667;1259;107250;-79
2023/11/01 01:55:48;;;;;;;4.20;2.80;;;;;;;11.48;79.50;99100.65;130802;1256;107491;-79
2023/11/01 01:58:55;;;;;;;4.50;2.80;;;;;;;11.47;79.60;99102.16;130809;1253;106723;-79
2023/11/01 02:02:02;;;;;;;3.80;3.10;;;;;;;11.49;79.79;99106.17;130873;1253;106690;-79
2023/11/01 02:05:08;;;;;;;3.20;2.80;;;;;;;11.43;79.80;99108.11;130637;1259;107605;-79
2023/11/01 02:08:14;;;;;;;3.80;3.10;;;;;;;11.33;80.04;99113.21;130490;1259;106367;-78
2023/11/01 02:11:20;;;;;;;4.10;3.10;;;;;;;11.28;80.17;99114.18;130718;1256;107757;-78
2023/11/01 02:14:26;;;;;;;6.20;2.90;;;;;;;11.20;80.00;99118.92;130654;1259;108740;-78
2023/11/01 02:17:32;;;;;;;3.30;2.60;;;;;;;11.12;80.33;99123.41;130736;1253;108606;-78
2023/11/01 02:20:41;;;;;;;3.10;2.70;;;;;;;11.07;80.06;99123.37;130821;1256;106310;-79
2023/11/01 02:23:49;;;;;;;3.90;2.70;;;;;;;11.06;80.10;99126.86;130721;1259;106465;-78
2023/11/01 02:26:54;;;;;;;5.10;3.00;;;;;;;11.04;80.22;99132.65;130757;1259;108551;-78
2023/11/01 02:30:00;;;;;;;4.50;3.20;;;;;;;11.01;80.10;99130.11;130746;1254;107081;-78
2023/11/01 02:33:06;;;;;;;4.80;3.00;;;;;;;10.96;80.71;99132.26;130683;1260;107392;-78
2023/11/01 02:36:13;;;;;;;3.30;2.70;;;;;;;10.92;80.22;99139.41;130744;1259;108097;-78
2023/11/01 02:39:19;;;;;;;4.90;2.80;;;;;;;10.83;80.23;99142.86;130744;1257;107502;-78
2023/11/01 02:42:25;;;;;;;4.00;2.40;;;;;;;10.74;80.19;99145.98;130800;1254;108441;-78
2023/11/01 02:45:31;;;;;;;5.10;2.40;;;;;;;10.68;80.41;99142.25;130753;1260;107473;-78
2023/11/01 02:48:36;;;;;;;3.00;2.30;;;;;;;10.68;80.09;99145.83;130713;1256;107468;-77
2023/11/01 02:51:42;;;;;;;3.20;2.40;;;;;;;10.70;80.15;99144.66;130757;1259;105871;-78
2023/11/01 02:54:48;;;;;;;6.40;2.60;;;;;;;10.69;79.89;99146.38;130743;1256;106589;-78
2023/11/01 02:57:53;;;;;;;3.70;2.30;;;;;;;10.66;79.93;99148.54;130738;1253;107702;-78
2023/11/01 03:00:59;;;;;;;2.80;2.30;;;;;;;10.61;79.96;99146.02;130692;1256;106498;-78
2023/11/01 03:04:05;;;;;;;4.60;2.40;;;;;;;10.56;80.11;99148.52;130628;1253;107299;-78
2023/11/01 03:07:11;;;;;;;2.80;2.30;;;;;;;10.48;80.03;99150.19;130745;1253;106980;-78
2023/11/01 03:10:17;;;;;;;2.90;2.20;;;;;;;10.41;80.48;99151.19;130695;1258;107518;-78
2023/11/01 03:13:22;;;;;;;4.30;2.00;;;;;;;10.37;80.34;99154.88;130667;1259;108509;-77
2023/11/01 03:16:28;;;;;;;2.40;2.00;;;;;;;10.36;80.00;99159.05;130664;1254;107387;-78
2023/11/01 03:19:34;;;;;;;3.00;2.00;;;;;;;10.36;80.27;99166.36;130751;1253;107768;-78
2023/11/01 03:22:40;;;;;;;2.60;2.10;;;;;;;10.36;80.23;99171.00;130747;1259;107021;-78
2023/11/01 03:25:46;;;;;;;3.60;2.50;;;;;;;10.34;80.17;99174.77;130709;1254;106660;-79
2023/11/01 03:28:52;;;;;;;4.40;2.40;;;;;;;10.30;79.76;99179.66;130746;1259;107748;-79
2023/11/01 03:31:58;;;;;;;2.50;2.30;;;;;;;10.27;80.00;99177.59;130770;1256;108735;-78
2023/11/01 03:35:03;;;;;;;4.30;2.00;;;;;;;10.21;79.98;99182.96;130706;1254;107730;-78
2023/11/01 03:38:09;;;;;;;4.20;1.90;;;;;;;10.14;80.05;99184.02;130693;1254;107805;-79
2023/11/01 03:41:15;;;;;;;4.40;1.90;;;;;;;10.12;80.25;99184.98;130776;1256;107664;-78
2023/11/01 03:44:20;;;;;;;3.10;1.90;;;;;;;10.12;80.13;99196.89;130700;1259;107751;-79
2023/11/01 03:47:27;;;;;;;2.70;1.90;;;;;;;10.12;80.12;99204.83;130811;1256;106659;-78
2023/11/01 03:50:32;;;;;;;4.30;2.20;;;;;;;10.11;79.78;99211.71;130743;1256;107279;-78
2023/11/01 03:53:38;;;;;;;2.60;1.70;;;;;;;10.08;79.87;99215.77;130792;1256;106994;-78
2023/11/01 03:56:45;;;;;;;2.50;1.70;;;;;;;10.03;79.60;99216.33;130733;1254;107201;-78
2023/11/01 03:59:50;;;;;;;2.40;1.90;;;;;;;9.98;79.78;99226.69;130757;1255;108471;-78
2023/11/01 04:02:56;;;;;;;2.70;1.70;;;;;;;9.92;79.73;99230.38;130725;1258;106695;-78
2023/11/01 04:06:02;;;;;;;1.70;1.40;;;;;;;9.87;79.66;99235.60;130795;1254;107785;-78
2023/11/01 04:09:07;;;;;;;2.30;1.60;;;;;;;9.85;79.70;99238.14;130762;1257;106953;-78
2023/11/01 04:12:13;;;;;;;2.10;1.70;;;;;;;9.83;79.64;99233.16;130704;1254;106709;-78
2023/11/01 04:15:21;;;;;;;4.40;1.90;;;;;;;9.81;79.61;99231.40;130760;1256;108698;-79
2023/11/01 04:18:26;;;;;;;2.70;1.90;;;;;;;9.79;79.59;99231.64;130788;1260;106737;-78
2023/11/01 04:21:32;;;;;;;2.40;1.80;;;;;;;9.74;79.30;99234.71;130773;1268;107671;-77
2023/11/01 04:24:38;;;;;;;1.70;1.50;;;;;;;9.69;79.38;99240.30;130850;1259;107438;-79
2023/11/01 04:27:45;;;;;;;2.00;1.50;;;;;;;9.64;79.21;99242.61;130727;1254;107397;-78
2023/11/01 04:30:51;;;;;;;1.60;1.40;;;;;;;9.55;79.35;99249.50;130754;1256;106803;-78
2023/11/01 04:33:57;;;;;;;2.50;1.50;;;;;;;9.51;79.33;99256.17;130738;1254;108390;-78
2023/11/01 04:37:03;;;;;;;2.60;1.70;;;;;;;9.48;79.30;99254.15;130834;1259;106482;-79
2023/11/01 04:40:12;;;;;;;2.30;1.30;;;;;;;9.50;79.43;99260.90;130851;1254;107790;-78
2023/11/01 04:43:18;;;;;;;2.30;1.50;;;;;;;9.51;79.26;99267.29;130838;1256;108498;-78
2023/11/01 04:46:24;;;;;;;1.80;1.50;;;;;;;9.51;79.40;99266.23;130778;1256;106736;-77
2023/11/01 04:49:30;;;;;;;2.00;1.30;;;;;;;9.50;79.48;99270.23;130953;1253;108152;-80
2023/11/01 04:52:36;;;;;;;1.40;1.20;;;;;;;9.48;79.18;99277.91;130878;1257;108723;-79
2023/11/01 04:55:42;;;;;;;1.60;1.50;;;;;;;9.43;79.43;99278.06;130858;1253;105877;-78
2023/11/01 04:58:47;;;;;;;2.30;1.60;;;;;;;9.39;79.20;99281.42;130776;1258;107775;-78
2023/11/01 05:01:53;;;;;;;2.20;1.50;;;;;;;9.33;79.47;99284.52;130947;1254;108678;-79
2023/11/01 05:04:59;;;;;;;2.80;1.30;;;;;;;9.29;79.33;99285.90;130794;1258;107606;-78
2023/11/01 05:08:04;;;;;;;2.50;1.60;;;;;;;9.27;79.22;99288.27;130849;1259;107621;-79
2023/11/01 05:11:10;;;;;;;2.00;1.50;;;;;;;9.28;79.24;99289.41;130721;1256;106984;-79
2023/11/01 05:14:17;;;;;;;2.30;1.70;;;;;;;9.29;79.06;99291.92;130785;1259;107774;-78
2023/11/01 05:17:23;;;;;;;2.40;1.70;;;;;;;9.27;78.96;99298.59;130839;1256;106462;-78
2023/11/01 05:20:29;;;;;;;2.20;1.60;;;;;;;9.22;79.25;99299.79;130875;1256;109709;-79
2023/11/01 05:23:35;;;;;;;1.90;1.50;;;;;;;9.19;78.76;99305.58;131262;1256;108699;-78
2023/11/01 05:26:41;;;;;;;1.70;1.20;;;;;;;9.15;79.02;99308.50;130818;1256;108756;-78
2023/11/01 05:29:46;;;;;;;1.80;1.30;;;;;;;9.15;78.93;99316.52;130888;1258;107172;-78
2023/11/01 05:32:52;;;;;;;2.70;1.30;;;;;;;9.14;78.50;99322.41;130874;1259;108722;-78
2023/11/01 05:35:58;;;;;;;2.10;1.00;;;;;;;9.12;78.66;99327.11;130884;1256;107983;-77
2023/11/01 05:39:05;;;;;;;1.10;0.80;;;;;;;9.12;78.34;99335.42;130938;1259;107488;-78
2023/11/01 05:42:11;;;;;;;2.20;1.40;;;;;;;9.13;78.48;99342.30;130689;1259;107480;-77
2023/11/01 05:45:17;;;;;;;2.10;1.20;;;;;;;9.15;78.54;99345.63;134527;1254;106546;-78
2023/11/01 05:48:23;;;;;;;2.20;1.30;;;;;;;9.17;78.16;99346.07;135140;1252;107547;-78
2023/11/01 05:51:28;;;;;;;2.00;1.30;;;;;;;9.20;78.31;99353.25;135034;1253;106446;-77
2023/11/01 05:54:34;;;;;;;3.40;1.50;;;;;;;9.20;78.24;99351.66;135095;1254;107786;-77
2023/11/01 05:57:39;;;;;;;3.30;1.60;;;;;;;9.20;78.03;99357.12;134776;1253;106415;-78
2023/11/01 06:00:45;;;;;;;3.60;1.40;;;;;;;9.21;78.14;99361.94;130755;1259;108796;-77
2023/11/01 06:03:51;;;;;;;2.00;1.30;;;;;;;9.23;78.36;99364.60;130642;1257;107451;-77
2023/11/01 06:06:56;;;;;;;2.90;1.40;;;;;;;9.30;78.23;99372.05;130726;1266;106950;-73
2023/11/01 06:10:02;;;;;;;2.60;1.00;;;;;;;9.38;78.03;99376.81;130747;1260;107877;-73
2023/11/01 06:13:08;;;;;;;1.40;1.10;;;;;;;9.44;78.09;99374.36;130805;1256;106884;-73
2023/11/01 06:16:13;;;;;;;4.30;1.50;;;;;;;9.51;77.99;99381.09;130788;1259;107697;-74
2023/11/01 06:19:19;;;;;;;4.10;1.10;;;;;;;9.56;77.82;99381.50;130779;1256;106651;-73
2023/11/01 06:22:24;;;;;;;1.10;0.90;;;;;;;9.58;77.51;99390.42;130828;1254;108631;-72
2023/11/01 06:25:30;;;;;;;1.10;1.00;;;;;;;9.57;77.24;99390.72;130719;1259;106151;-74
2023/11/01 06:28:36;;;;;;;1.60;1.00;;;;;;;9.56;77.53;99393.14;130923;1256;107798;-74
2023/11/01 06:31:41;;;;;;;1.30;0.90;;;;;;;9.56;77.30;99394.95;130791;1258;107093;-75
2023/11/01 06:34:47;;;;;;;1.90;0.90;;;;;;;9.58;77.07;99394.69;130749;1259;107154;-76
2023/11/01 06:37:52;;;;;;;1.20;0.90;;;;;;;9.62;77.17;99399.23;130683;1256;107353;-74
2023/11/01 06:40:59;;;;;;;1.80;1.10;;;;;;;9.66;76.45;99403.96;130789;1256;106774;-74
2023/11/01 06:44:07;;;;;;;2.80;1.30;;;;;;;9.67;76.53;99405.09;130813;1259;106487;-76
2023/11/01 06:47:13;;;;;;;1.20;0.90;;;;;;;9.72;76.39;99405.24;130770;1260;109736;-75
2023/11/01 06:50:18;;;;;;;1.00;0.70;;;;;;;9.75;75.25;99406.52;130792;1256;106886;-74
2023/11/01 06:53:24;;;;;;;2.00;1.00;;;;;;;9.72;75.66;99410.00;130851;1255;108843;-73
2023/11/01 06:56:30;;;;;;;1.80;1.20;;;;;;;9.73;75.24;99411.35;130808;1267;107907;-72
2023/11/01 06:59:36;;;;;;;2.00;0.80;;;;;;;9.75;75.32;99415.60;130820;1260;107633;-73
2023/11/01 07:02:41;;;;;;;2.50;1.40;;;;;;;9.82;75.66;99417.98;130865;1256;106441;-73
2023/11/01 07:05:47;;;;;;;1.80;1.00;;;;;;;9.92;75.53;99422.67;130888;1260;107531;-74
2023/11/01 07:08:53;;;;;;;1.20;0.80;;;;;;;9.95;74.50;99422.77;130663;1257;106635;-73
2023/11/01 07:11:59;;;;;;;2.30;0.80;;;;;;;9.97;74.35;99426.80;130658;1259;107036;-73
2023/11/01 07:15:08;;;;;;;1.20;0.80;;;;;;;10.04;74.66;99432.14;130711;1257;106284;-73
2023/11/01 07:18:13;;;;;;;5.50;4.40;;;;;;;10.12;74.41;99432.70;130643;1260;106781;-73
2023/11/01 07:21:19;;;;;;;1.20;0.80;;;;;;;10.18;74.45;99437.51;130724;1268;106873;-73
2023/11/01 07:24:25;;;;;;;2.70;1.70;;;;;;;10.20;74.80;99440.27;130742;1258;108659;-73
2023/11/01 07:27:30;;;;;;;2.60;0.80;;;;;;;10.26;74.66;99441.05;130644;1259;107679;-73
2023/11/01 07:30:36;;;;;;;1.00;0.60;;;;;;;10.32;74.61;99444.49;130688;1254;107667;-73
2023/11/01 07:33:42;;;;;;;1.00;0.70;;;;;;;10.39;74.31;99452.23;130577;1257;106857;-74
2023/11/01 07:36:48;;;;;;;1.50;1.10;;;;;;;10.48;73.29;99459.41;130711;1264;107122;-74
2023/11/01 07:39:53;;;;;;;8.70;5.20;;;;;;;10.52;72.58;99461.59;130713;1260;106625;-74
2023/11/01 07:42:59;;;;;;;4.80;3.70;;;;;;;10.54;72.71;99470.10;130766;1256;107803;-72
2023/11/01 07:46:05;;;;;;;2.50;1.80;;;;;;;10.57;73.10;99474.75;130634;1256;108689;-72
2023/11/01 07:49:10;;;;;;;23.60;10.50;;;;;;;10.61;71.94;99479.17;130687;1257;107592;-73
2023/11/01 07:52:16;;;;;;;4.90;2.50;;;;;;;10.66;71.86;99483.80;130687;1267;106550;-72
2023/11/01 07:55:22;;;;;;;8.00;3.60;;;;;;;10.64;71.10;99486.86;130748;1260;107697;-73
2023/11/01 07:58:29;;;;;;;6.70;2.50;;;;;;;10.59;70.78;99487.65;130674;1257;107919;-74
2023/11/01 08:01:36;;;;;;;3.00;1.90;;;;;;;10.69;71.57;99488.79;130678;1254;108641;-76
2023/11/01 08:04:41;;;;;;;8.00;2.40;;;;;;;10.73;70.46;99491.73;130735;1258;106799;-73
2023/11/01 08:07:47;;;;;;;5.60;1.90;;;;;;;10.76;69.71;99490.83;130677;1259;106631;-73
2023/11/01 08:10:52;;;;;;;7.60;3.00;;;;;;;10.84;70.73;99496.34;130696;1259;106844;-74
2023/11/01 08:13:58;;;;;;;3.70;1.60;;;;;;;10.94;69.35;99500.33;130668;1265;105604;-73
2023/11/01 08:17:03;;;;;;;3.40;1.50;;;;;;;10.94;69.75;99500.75;130725;1260;106670;-73
2023/11/01 08:20:11;;;;;;;5.90;2.40;;;;;;;11.05;68.86;99507.77;130683;1263;108530;-73
2023/11/01 08:23:16;;;;;;;11.30;3.80;;;;;;;11.18;69.90;99510.20;130713;1259;106707;-73
2023/11/01 08:26:23;;;;;;;8.00;2.60;;;;;;;11.29;69.98;99508.95;131017;1259;106336;-75
2023/11/01 08:29:30;;;;;;;10.40;3.40;;;;;;;11.40;70.02;99514.19;130758;1257;106940;-73
2023/11/01 08:32:36;;;;;;;7.00;4.50;;;;;;;11.46;69.97;99513.42;131489;1257;108702;-73
2023/11/01 08:35:42;;;;;;;4.40;2.70;;;;;;;11.44;68.20;99519.90;130969;1256;106876;-73
2023/11/01 08:38:47;;;;;;;4.40;2.40;;;;;;;11.40;69.68;99519.63;130903;1256;107750;-72
2023/11/01 08:41:53;;;;;;;3.80;1.80;;;;;;;11.40;69.68;99525.76;130891;1266;108003;-72
2023/11/01 08:44:58;;;;;;;9.20;3.60;;;;;;;11.38;69.58;99529.86;130753;1256;107774;-72
2023/11/01 08:48:05;;;;;;;6.50;2.40;;;;;;;11.43;70.16;99530.54;130675;1259;108718;-72
2023/11/01 08:51:10;;;;;;;8.70;5.20;;;;;;;11.53;69.90;99527.10;130597;1267;107192;-72
2023/11/01 08:54:16;;;;;;;5.80;2.90;;;;;;;11.57;69.43;99531.74;130792;1260;107146;-72
2023/11/01 08:57:22;;;;;;;2.90;1.60;;;;;;;11.67;69.59;99532.57;130671;1260;107946;-72
2023/11/01 09:00:28;;;;;;;5.00;1.50;;;;;;;11.67;67.82;99532.27;130680;1258;107159;-72
2023/11/01 09:03:34;;;;;;;3.10;1.40;;;;;;;11.61;68.14;99536.85;130631;1261;108115;-72
2023/11/01 09:06:40;;;;;;;6.60;4.20;;;;;;;11.55;68.41;99541.85;130649;1266;108545;-72
2023/11/01 09:09:46;;;;;;;8.60;3.00;;;;;;;11.60;68.73;99542.81;130698;1267;106702;-72
2023/11/01 09:12:51;;;;;;;1.70;1.20;;;;;;;11.71;68.35;99543.48;130675;1261;107064;-72
2023/11/01 09:15:57;;;;;;;1.60;1.00;;;;;;;11.69;66.11;99546.59;130740;1260;106478;-72
2023/11/01 09:19:03;;;;;;;5.70;2.70;;;;;;;11.72;68.37;99551.00;130661;1260;107280;-74
2023/11/01 09:22:09;;;;;;;9.80;4.20;;;;;;;11.92;68.14;99555.56;130730;1254;106735;-74
2023/11/01 09:25:15;;;;;;;3.20;1.40;;;;;;;12.07;67.88;99559.20;130747;1266;108718;-72
2023/11/01 09:28:21;;;;;;;4.50;2.10;;;;;;;12.08;67.19;99563.30;130725;1260;107720;-74
2023/11/01 09:31:27;;;;;;;3.30;2.40;;;;;;;12.08;67.28;99558.48;130694;1259;107630;-72
2023/11/01 09:34:33;;;;;;;2.20;1.40;;;;;;;12.00;65.66;99568.14;130677;1262;106888;-72
2023/11/01 09:37:39;;;;;;;3.90;1.50;;;;;;;11.85;66.20;99566.13;130786;1259;107648;-73
2023/11/01 09:40:44;;;;;;;4.80;2.60;;;;;;;11.83;66.44;99562.67;130744;1260;107626;-72
2023/11/01 09:43:52;;;;;;;2.40;2.10;;;;;;;11.83;67.00;99562.38;130676;1267;107516;-73
2023/11/01 09:46:59;;;;;;;4.50;3.00;;;;;;;11.91;67.69;99566.75;130780;1253;106682;-74
2023/11/01 09:50:08;;;;;;;4.40;2.50;;;;;;;11.89;66.14;99568.27;130796;1268;105772;-73
2023/11/01 09:53:16;;;;;;;2.40;1.70;;;;;;;11.82;66.96;99564.01;130754;1260;106884;-72
2023/11/01 09:56:26;;;;;;;5.00;3.00;;;;;;;11.87;67.15;99567.80;130684;1260;109410;-72
2023/11/01 09:59:32;;;;;;;3.10;1.70;;;;;;;11.82;66.43;99564.42;130737;1259;108849;-72
2023/11/01 10:02:38;;;;;;;3.50;2.20;;;;;;;11.71;67.22;99562.05;130778;1260;106432;-72
2023/11/01 10:05:44;;;;;;;3.10;1.80;;;;;;;11.75;67.57;99558.58;130829;1267;106507;-72
2023/11/01 10:08:50;;;;;;;2.50;1.60;;;;;;;11.85;67.62;99559.58;130748;1260;106884;-72
2023/11/01 10:11:57;;;;;;;2.50;1.90;;;;;;;11.96;67.49;99556.72;130713;1256;107036;-72
2023/11/01 10:15:04;;;;;;;3.10;2.10;;;;;;;12.05;67.63;99557.81;130736;1256;107471;-72
2023/11/01 10:18:09;;;;;;;2.50;1.70;;;;;;;12.14;67.41;99553.53;130714;1257;106405;-72
2023/11/01 10:21:15;;;;;;;2.70;1.60;;;;;;;12.22;67.44;99546.63;130760;1264;106528;-72
2023/11/01 10:24:25;;;;;;;2.00;1.70;;;;;;;12.24;67.22;99544.39;130708;1260;107442;-72
2023/11/01 10:27:38;;;;;;;5.10;2.60;;;;;;;12.15;66.94;99550.91;130711;1258;106956;-72
2023/11/01 10:30:46;;;;;;;3.80;2.00;;;;;;;12.15;67.74;99552.17;130678;1268;107738;-73
2023/11/01 10:33:53;;;;;;;6.10;4.50;;;;;;;12.20;67.53;99549.27;130776;1267;106763;-72
2023/11/01 10:36:59;;;;;;;2.90;2.40;;;;;;;12.19;67.26;99552.02;130786;1260;108434;-72
2023/11/01 10:40:08;;;;;;;26.10;13.20;;;;;;;12.22;67.65;99555.09;130643;1257;106587;-72
2023/11/01 10:43:14;;;;;;;31.60;11.00;;;;;;;12.22;67.67;99551.17;130623;1260;175275;-72
2023/11/01 10:46:20;;;;;;;8.30;4.00;;;;;;;12.22;67.45;99550.83;130724;1256;106962;-72
2023/11/01 10:49:27;;;;;;;4.00;2.30;;;;;;;12.10;66.51;99552.52;130663;1266;106476;-72
2023/11/01 10:52:34;;;;;;;9.00;6.40;;;;;;;11.99;67.47;99548.88;130645;1259;108182;-73
2023/11/01 10:55:41;;;;;;;5.30;3.20;;;;;;;12.02;67.23;99553.86;130723;1259;107605;-73
2023/11/01 10:58:48;;;;;;;7.30;2.80;;;;;;;11.94;67.08;99554.39;130758;1257;107649;-74
2023/11/01 11:02:01;;;;;;;6.50;5.30;;;;;;;11.92;67.47;99557.02;130669;1257;108690;-72
2023/11/01 11:05:10;;;;;;;6.30;3.90;;;;;;;11.90;66.92;99556.19;130757;1267;107756;-72
2023/11/01 11:08:16;;;;;;;6.30;3.10;;;;;;;11.85;67.47;99558.21;130778;1257;108571;-72
2023/11/01 11:11:22;;;;;;;5.00;2.80;;;;;;;11.94;68.16;99561.40;130802;1255;106537;-72
2023/11/01 11:14:43;;;;;;;3.30;2.20;;;;;;;12.06;67.87;99557.48;130716;1260;107008;-72
2023/11/01 11:18:07;;;;;;;4.40;2.70;;;;;;;12.06;67.66;99561.22;130738;1259;107738;-72
2023/11/01 11:21:50;;;;;;;5.70;3.10;;;;;;;12.10;67.89;99562.14;130672;1257;106857;-73
2023/11/01 11:24:57;;;;;;;5.70;3.30;;;;;;;12.17;68.10;99556.05;130702;1257;106788;-72
2023/11/01 11:28:05;;;;;;;5.20;3.40;;;;;;;12.16;67.69;99560.39;130638;1267;107951;-72
2023/11/01 11:31:15;;;;;;;4.40;2.80;;;;;;;12.11;67.81;99559.27;130694;1257;107787;-72
2023/11/01 11:34:22;;;;;;;6.80;4.30;;;;;;;12.06;68.08;99559.08;130690;1260;106625;-72
2023/11/01 11:37:31;;;;;;;6.10;4.00;;;;;;;12.04;68.19;99563.94;130678;1260;106827;-72
2023/11/01 11:40:37;;;;;;;5.70;3.60;;;;;;;11.96;68.04;99570.91;130737;1257;106985;-72
2023/11/01 11:44:01;;;;;;;5.40;3.20;;;;;;;11.79;68.32;99569.48;130634;1254;108380;-72
2023/11/01 11:47:30;;;;;;;6.40;3.60;;;;;;;11.62;68.49;99571.66;130692;1257;106212;-73
2023/11/01 11:50:35;;;;;;;6.00;3.20;;;;;;;11.47;68.97;99569.85;130731;1258;108497;-73
2023/11/01 11:53:42;;;;;;;5.20;3.10;;;;;;;11.39;69.57;99571.89;130748;1266;107757;-72
2023/11/01 11:56:52;;;;;;;6.10;3.90;;;;;;;11.35;69.61;99570.61;130650;1257;107667;-73
2023/11/01 12:00:04;;;;;;;9.20;4.40;;;;;;;11.33;69.87;99575.54;130746;1257;107806;-72
2023/11/01 12:03:20;;;;;;;;;;;;;;;11.42;70.29;99578.16;130753;1258;106546;-72
2023/11/01 12:06:26;;;;;;;4.20;3.10;;;;;;;11.46;70.99;99575.06;130791;1258;107680;-72
2023/11/01 12:09:32;;;;;;;6.90;4.90;;;;;;;11.49;71.06;99574.36;131205;1254;107724;-73
2023/11/01 12:12:38;;;;;;;4.70;3.40;;;;;;;11.52;70.85;99569.48;131135;1254;107431;-73
2023/11/01 12:15:44;;;;;;;4.70;3.00;;;;;;;11.50;71.56;99571.43;130847;1254;106427;-74
2023/11/01 12:19:08;;;;;;;9.00;4.90;;;;;;;11.34;71.96;99571.82;131194;1254;106773;-73
2023/11/01 12:22:14;;;;;;;6.70;4.20;;;;;;;11.31;71.68;99567.68;130885;1260;108686;-73
2023/11/01 12:25:26;;;;;;;7.60;4.60;;;;;;;11.33;71.90;99564.48;130731;1254;107712;-73
2023/11/01 12:28:31;;;;;;;8.90;3.60;;;;;;;11.38;71.80;99566.33;130689;1254;106008;-77
2023/11/01 12:31:37;;;;;;;5.60;3.60;;;;;;;11.45;71.88;99565.66;131063;1257;107562;-73
2023/11/01 12:35:04;;;;;;;6.00;3.40;;;;;;;11.38;72.10;99563.35;130934;1254;108710;-73
2023/11/01 12:38:18;;;;;;;7.80;4.10;;;;;;;11.27;72.06;99559.23;130703;1260;107718;-73
2023/11/01 12:41:26;;;;;;;6.00;3.40;;;;;;;11.22;72.31;99557.13;130884;1258;107182;-73
2023/11/01 12:44:32;;;;;;;4.40;3.50;;;;;;;11.25;72.48;99555.10;130830;1257;107820;-72
2023/11/01 12:47:45;;;;;;;4.90;3.50;;;;;;;11.26;72.41;99554.56;130904;1257;106962;-73
2023/11/01 12:50:52;;;;;;;7.80;4.50;;;;;;;11.35;72.26;99558.02;131119;1257;107808;-74
2023/11/01 12:53:58;;;;;;;8.40;3.80;;;;;;;11.38;72.09;99553.94;130886;1254;106785;-74
2023/11/01 12:57:06;;;;;;;6.50;5.00;;;;;;;11.36;72.28;99557.68;130775;1258;109052;-73
2023/11/01 13:00:15;;;;;;;6.10;3.50;;;;;;;11.39;72.24;99562.15;130819;1257;107169;-73
2023/11/01 13:03:21;;;;;;;7.70;4.20;;;;;;;11.35;72.47;99566.73;130744;1258;106434;-73
2023/11/01 13:06:27;;;;;;;8.40;4.60;;;;;;;11.33;72.49;99564.64;130985;1254;107608;-73
2023/11/01 13:09:33;;;;;;;7.70;4.50;;;;;;;11.37;72.63;99560.17;130805;1257;107583;-72
2023/11/01 13:12:39;;;;;;;4.90;3.70;;;;;;;11.44;72.62;99551.32;130630;1258;106736;-74
2023/11/01 13:15:44;;;;;;;5.20;3.40;;;;;;;11.48;72.29;99554.62;130739;1257;107567;-72
2023/11/01 13:18:50;;;;;;;6.90;3.90;;;;;;;11.51;72.49;99549.01;130743;1257;106593;-72
2023/11/01 13:21:55;;;;;;;5.50;3.30;;;;;;;11.59;72.69;99549.56;130709;1257;106291;-72
2023/11/01 13:25:01;;;;;;;5.50;3.20;;;;;;;11.68;72.61;99547.13;130727;1258;106326;-72
2023/11/01 13:28:07;;;;;;;5.40;3.80;;;;;;;11.74;72.55;99548.73;130869;1254;107786;-74
2023/11/01 13:31:12;;;;;;;12.40;8.10;;;;;;;11.82;72.56;99551.41;130768;1257;106662;-73
2023/11/01 13:34:18;;;;;;;11.30;6.90;;;;;;;11.88;72.53;99547.70;130851;1254;107738;-73
2023/11/01 13:37:24;;;;;;;6.90;4.40;;;;;;;11.95;72.49;99540.30;130739;1258;108201;-73
2023/11/01 13:40:30;;;;;;;15.70;7.10;;;;;;;12.01;72.77;99542.73;131280;1257;106885;-72
2023/11/01 13:43:35;;;;;;;15.70;7.70;;;;;;;12.05;72.71;99549.27;131076;1253;106894;-73
2023/11/01 13:46:41;;;;;;;10.10;5.30;;;;;;;12.09;72.72;99550.02;130914;1254;106284;-73
2023/11/01 13:49:47;;;;;;;7.10;3.60;;;;;;;12.10;72.60;99549.91;130695;1257;106590;-73
2023/11/01 13:52:53;;;;;;;7.30;5.10;;;;;;;12.13;72.83;99548.45;130807;1254;108742;-73
2023/11/01 13:55:58;;;;;;;10.90;6.20;;;;;;;12.14;72.78;99549.21;130904;1252;107747;-73
2023/11/01 13:59:06;;;;;;;8.60;7.10;;;;;;;12.14;72.72;99546.88;130831;1257;107398;-73
2023/11/01 14:02:12;;;;;;;8.00;5.70;;;;;;;12.10;72.78;99542.40;131024;1258;108717;-73
2023/11/01 14:05:17;;;;;;;10.30;5.40;;;;;;;12.03;72.73;99537.95;130902;1257;106943;-74
2023/11/01 14:08:23;;;;;;;16.90;8.20;;;;;;;11.96;72.74;99537.27;130779;1256;106937;-73
2023/11/01 14:11:29;;;;;;;19.20;10.60;;;;;;;11.87;72.90;99541.29;131282;1254;107640;-75
2023/11/01 14:14:34;;;;;;;22.20;12.50;;;;;;;11.80;72.91;99537.66;130742;1263;107880;-72
2023/11/01 14:17:41;;;;;;;20.00;12.50;;;;;;;11.73;72.81;99537.27;130666;1260;107276;-73
2023/11/01 14:20:46;;;;;;;13.70;8.70;;;;;;;11.64;72.79;99530.27;130855;1254;106867;-72